Time;durP1;ratioP1;P1;durP2;ratioP2;P2;SDS_P1;SDS_P2;PMS_P1;PMS_P2;Temp;Humidity;BMP_temperature;BMP_pressure;BME280_temperature;BME280_humidity;BME280_pressure;Samples;Min_cycle;Max_cycle;Signal;HPM_P1;HPM_P2
2022/03/01 00:02:17;;;;;;;7.20;4.40;;;;;;;12.60;67.54;101396.66;5032203;28;20026;-87
2022/03/01 00:04:42;;;;;;;6.82;4.10;;;;;;;12.68;67.70;101389.13;5031044;28;20468;-87
2022/03/01 00:07:08;;;;;;;7.18;4.88;;;;;;;12.62;67.81;101407.13;5032361;28;20032;-86
2022/03/01 00:09:34;;;;;;;8.80;5.13;;;;;;;12.60;68.08;101404.56;5031942;28;20021;-87
2022/03/01 00:12:00;;;;;;;9.80;4.47;;;;;;;12.46;68.20;101413.31;5031940;28;20026;-87
2022/03/01 00:14:25;;;;;;;6.95;5.72;;;;;;;12.35;68.25;101420.16;5031937;28;20468;-87
2022/03/01 00:16:50;;;;;;;10.82;5.30;;;;;;;12.56;67.54;101416.25;5033354;28;20063;-87
2022/03/01 00:19:16;;;;;;;7.60;4.82;;;;;;;12.46;68.16;101413.31;5030757;28;20463;-87
2022/03/01 00:21:41;;;;;;;9.75;5.20;;;;;;;12.54;68.92;101423.38;5032216;28;20037;-87
2022/03/01 00:24:07;;;;;;;10.38;5.63;;;;;;;12.51;68.17;101426.19;5032121;28;20037;-87
2022/03/01 00:26:32;;;;;;;7.97;5.20;;;;;;;12.56;68.30;101429.41;5032065;28;20375;-87
2022/03/01 00:28:57;;;;;;;10.25;5.65;;;;;;;12.50;68.15;101440.31;5031851;28;20395;-87
2022/03/01 00:31:23;;;;;;;10.25;6.28;;;;;;;12.46;67.68;101430.88;5032992;28;20032;-86
2022/03/01 00:33:48;;;;;;;7.90;5.60;;;;;;;12.48;68.20;101429.88;5031795;28;20029;-86
2022/03/01 00:36:13;;;;;;;10.18;5.78;;;;;;;12.56;67.66;101439.94;5032044;28;20029;-86
2022/03/01 00:38:39;;;;;;;9.27;5.65;;;;;;;12.60;68.10;101440.59;5032060;28;20028;-87
2022/03/01 00:41:04;;;;;;;10.88;6.20;;;;;;;12.63;68.00;101443.88;5030626;28;20025;-87
2022/03/01 00:43:30;;;;;;;9.32;6.00;;;;;;;12.61;68.05;101435.22;5031803;28;20022;-86
2022/03/01 00:45:55;;;;;;;10.00;6.40;;;;;;;12.56;67.79;101431.16;5042810;28;20078;-86
2022/03/01 00:48:21;;;;;;;9.63;6.45;;;;;;;12.55;68.06;101440.03;5050141;28;20406;-87
2022/03/01 00:50:48;;;;;;;9.48;6.63;;;;;;;12.51;67.13;101442.00;5051922;28;20394;-86
2022/03/01 00:53:13;;;;;;;11.23;6.40;;;;;;;12.66;67.33;101435.81;5051882;28;20029;-87
2022/03/01 00:55:39;;;;;;;11.52;6.45;;;;;;;12.58;67.77;101434.56;5051649;28;20031;-86
2022/03/01 00:58:05;;;;;;;7.95;6.32;;;;;;;12.58;67.51;101432.81;5050385;28;20045;-87
2022/03/01 01:00:32;;;;;;;10.35;7.28;;;;;;;12.35;68.40;101431.53;5039930;28;20029;-86
2022/03/01 01:02:57;;;;;;;9.38;7.38;;;;;;;12.43;67.77;101423.16;5031470;28;20075;-86
2022/03/01 01:05:23;;;;;;;10.60;6.85;;;;;;;12.32;67.91;101436.13;5031742;28;20029;-87
2022/03/01 01:07:49;;;;;;;12.20;7.50;;;;;;;12.38;67.82;101431.34;5031686;28;20021;-86
2022/03/01 01:10:15;;;;;;;13.82;8.00;;;;;;;12.35;67.36;101443.84;5031687;28;20029;-85
2022/03/01 01:12:41;;;;;;;11.75;7.50;;;;;;;12.44;67.99;101448.56;5032510;28;20045;-86
2022/03/01 01:15:08;;;;;;;10.88;8.90;;;;;;;12.41;67.56;101451.38;5032995;28;20480;-86
2022/03/01 01:17:34;;;;;;;11.80;7.65;;;;;;;12.46;67.73;101462.47;5035317;28;20021;-86
2022/03/01 01:19:59;;;;;;;11.40;8.32;;;;;;;12.51;67.90;101460.44;5035285;28;20026;-86
2022/03/01 01:22:40;;;;;;;14.70;8.82;;;;;;;12.36;67.63;101464.84;5035173;28;20032;-85
2022/03/01 01:25:06;;;;;;;13.63;9.02;;;;;;;12.42;67.74;101479.41;5035375;28;20104;-86
2022/03/01 01:27:32;;;;;;;11.15;8.55;;;;;;;12.30;68.13;101486.22;5048988;28;20029;-86
2022/03/01 01:29:57;;;;;;;13.07;9.75;;;;;;;12.47;67.46;101477.38;5052038;28;20025;-86
2022/03/01 01:32:23;;;;;;;13.77;9.02;;;;;;;12.37;67.94;101478.84;5055163;28;20475;-86
2022/03/01 01:34:48;;;;;;;17.75;9.27;;;;;;;12.30;67.84;101484.47;5055301;28;20063;-85
2022/03/01 01:37:13;;;;;;;11.07;9.55;;;;;;;12.14;68.34;101480.16;5056641;28;20040;-85
2022/03/01 01:39:39;;;;;;;12.43;9.20;;;;;;;12.22;67.85;101480.56;5054063;28;20109;-85
2022/03/01 01:42:05;;;;;;;11.13;8.70;;;;;;;12.36;67.10;101479.78;5077368;28;20016;-85
2022/03/01 01:44:31;;;;;;;14.20;9.50;;;;;;;12.25;67.97;101473.34;5072424;28;20036;-85
2022/03/01 01:46:56;;;;;;;11.98;8.93;;;;;;;12.12;67.75;101474.16;5056906;28;20033;-85
2022/03/01 01:49:22;;;;;;;13.07;9.25;;;;;;;12.17;68.06;101480.00;5058480;28;20022;-87
2022/03/01 01:51:47;;;;;;;13.35;9.50;;;;;;;12.16;68.52;101479.13;5057827;28;20081;-86
2022/03/01 01:54:14;;;;;;;12.30;8.93;;;;;;;12.16;67.90;101484.41;5053784;28;20020;-85
2022/03/01 01:56:39;;;;;;;13.40;8.73;;;;;;;12.13;67.57;101486.38;5054637;28;20082;-85
2022/03/01 01:59:05;;;;;;;13.63;9.05;;;;;;;12.14;67.95;101496.81;5036879;28;20063;-87
2022/03/01 02:01:30;;;;;;;14.30;9.57;;;;;;;12.23;67.48;101493.66;5037767;28;20037;-85
2022/03/01 02:03:56;;;;;;;12.10;8.55;;;;;;;12.14;67.06;101493.34;5036446;28;20034;-85
2022/03/01 02:06:21;;;;;;;15.18;9.00;;;;;;;12.14;67.17;101491.53;5034680;28;20112;-85
2022/03/01 02:08:47;;;;;;;18.65;9.32;;;;;;;11.99;67.77;101487.16;5036406;28;20029;-85
2022/03/01 02:11:12;;;;;;;13.32;8.15;;;;;;;12.07;68.02;101490.22;5035790;28;20029;-86
2022/03/01 02:13:37;;;;;;;12.32;9.02;;;;;;;12.00;68.01;101488.84;5035480;28;20472;-86
2022/03/01 02:16:03;;;;;;;14.15;8.45;;;;;;;12.01;67.84;101495.81;5035228;28;20494;-86
2022/03/01 02:18:29;;;;;;;12.55;8.07;;;;;;;12.14;67.74;101498.59;5033653;28;20056;-86
2022/03/01 02:20:54;;;;;;;15.65;8.73;;;;;;;12.05;67.18;101503.44;5034869;28;20051;-86
2022/03/01 02:23:19;;;;;;;11.45;8.05;;;;;;;12.14;67.43;101501.22;5034861;28;20468;-86
2022/03/01 02:25:45;;;;;;;12.75;7.45;;;;;;;12.15;67.54;101508.22;5033721;28;20052;-86
2022/03/01 02:28:10;;;;;;;11.98;7.50;;;;;;;12.10;67.57;101505.81;5042958;28;20040;-86
2022/03/01 02:30:36;;;;;;;16.65;7.93;;;;;;;12.13;67.90;101497.75;5053979;28;20099;-86
2022/03/01 02:33:02;;;;;;;11.35;7.63;;;;;;;12.15;67.54;101502.94;5052831;28;20021;-86
2022/03/01 02:35:28;;;;;;;11.45;6.75;;;;;;;12.14;67.01;101498.59;5054176;28;20352;-86
2022/03/01 02:37:53;;;;;;;10.65;7.07;;;;;;;12.07;67.33;101503.38;5055140;28;20063;-86
2022/03/01 02:40:19;;;;;;;10.05;7.50;;;;;;;12.11;67.82;101507.53;5053762;28;20025;-86
2022/03/01 02:42:46;;;;;;;15.10;8.27;;;;;;;12.17;67.10;101516.88;5041743;28;20095;-86
2022/03/01 02:45:14;;;;;;;16.38;7.55;;;;;;;12.15;67.47;101513.47;5034001;28;20040;-86
2022/03/01 02:47:40;;;;;;;12.50;7.65;;;;;;;12.14;67.35;101517.03;5033926;28;20357;-86
2022/03/01 02:50:07;;;;;;;13.35;8.30;;;;;;;12.14;67.48;101530.19;5033778;28;20029;-87
2022/03/01 02:52:33;;;;;;;12.57;7.65;;;;;;;12.21;67.77;101527.13;5032473;28;20040;-86
2022/03/01 02:54:59;;;;;;;12.23;7.72;;;;;;;12.17;67.25;101517.69;5033636;28;20029;-86
2022/03/01 02:57:24;;;;;;;14.10;8.07;;;;;;;12.21;67.21;101507.84;5033724;28;20368;-86
2022/03/01 02:59:54;;;;;;;11.30;7.57;;;;;;;12.20;66.98;101506.13;5033329;28;20434;-86
2022/03/01 03:02:19;;;;;;;13.10;6.88;;;;;;;12.24;67.10;101513.78;5033883;28;20041;-86
2022/03/01 03:04:45;;;;;;;10.93;7.25;;;;;;;12.23;67.42;101516.50;5033580;28;20029;-86
2022/03/01 03:07:11;;;;;;;19.55;7.80;;;;;;;12.15;66.72;101527.47;5032201;28;20033;-86
2022/03/01 03:09:37;;;;;;;15.07;7.00;;;;;;;12.15;67.04;101527.47;5033229;28;20380;-86
2022/03/01 03:12:03;;;;;;;14.95;7.95;;;;;;;12.19;67.34;101525.53;5034508;28;20029;-86
2022/03/01 03:14:28;;;;;;;15.00;7.68;;;;;;;12.05;67.09;101521.88;5051570;28;20483;-86
2022/03/01 03:16:54;;;;;;;14.45;7.55;;;;;;;11.87;67.21;101525.53;5053426;28;20021;-86
2022/03/01 03:19:19;;;;;;;17.05;8.10;;;;;;;11.94;67.69;101524.25;5053124;28;20036;-86
2022/03/01 03:21:45;;;;;;;13.93;7.13;;;;;;;11.90;67.08;101520.94;5053144;28;20047;-86
2022/03/01 03:24:11;;;;;;;17.10;8.73;;;;;;;11.95;67.03;101511.94;5051636;28;20377;-86
2022/03/01 03:26:36;;;;;;;16.83;7.72;;;;;;;11.85;66.86;101509.81;5052915;28;20028;-85
2022/03/01 03:29:03;;;;;;;18.02;8.20;;;;;;;11.86;66.51;101519.38;5041285;28;20033;-85
2022/03/01 03:31:28;;;;;;;15.45;7.70;;;;;;;11.93;66.11;101526.97;5033003;28;20384;-86
2022/03/01 03:33:53;;;;;;;20.58;8.38;;;;;;;11.97;66.37;101528.53;5033077;28;20030;-86
2022/03/01 03:36:19;;;;;;;17.63;7.32;;;;;;;11.84;66.35;101525.69;5031684;28;20432;-86
2022/03/01 03:38:44;;;;;;;14.00;7.47;;;;;;;11.90;66.64;101528.00;5033876;28;20137;-86
2022/03/01 03:41:09;;;;;;;20.33;7.82;;;;;;;11.80;66.74;101525.00;5043104;28;20099;-85
2022/03/01 03:43:35;;;;;;;20.13;6.95;;;;;;;11.61;67.17;101514.66;5050385;28;20017;-85
2022/03/01 03:46:00;;;;;;;15.18;6.55;;;;;;;11.67;66.83;101516.06;5061401;28;20027;-87
2022/03/01 03:48:26;;;;;;;22.55;7.90;;;;;;;11.54;67.12;101517.69;5065942;28;20025;-86
2022/03/01 03:50:51;;;;;;;22.98;8.15;;;;;;;11.52;66.70;101521.25;5066237;28;20092;-86
2022/03/01 03:53:17;;;;;;;18.92;7.03;;;;;;;11.55;67.24;101514.13;5059618;28;20025;-86
2022/03/01 03:55:42;;;;;;;17.10;6.18;;;;;;;11.54;67.35;101509.81;5064092;28;20028;-86
2022/03/01 03:58:07;;;;;;;16.42;5.80;;;;;;;11.58;67.15;101514.81;5062829;28;20036;-85
2022/03/01 04:00:33;;;;;;;17.73;6.15;;;;;;;11.56;67.24;101516.66;5065490;28;20091;-85
2022/03/01 04:02:58;;;;;;;20.70;6.00;;;;;;;11.55;66.72;101507.06;5065128;28;20021;-85
2022/03/01 04:05:24;;;;;;;18.40;6.65;;;;;;;11.39;66.47;101520.19;5063889;28;20032;-86
2022/03/01 04:07:49;;;;;;;15.38;6.00;;;;;;;11.51;66.89;101513.41;5060308;28;20037;-85
2022/03/01 04:10:16;;;;;;;13.32;6.25;;;;;;;11.45;66.75;101517.25;5062893;28;20029;-85
2022/03/01 04:12:41;;;;;;;12.68;4.80;;;;;;;11.53;67.11;101516.81;5062310;28;20025;-85
2022/03/01 04:15:08;;;;;;;15.48;5.55;;;;;;;11.59;66.91;101515.63;5061072;28;20037;-85
2022/03/01 04:17:34;;;;;;;17.77;6.10;;;;;;;11.54;66.28;101517.69;5054245;28;20021;-86
2022/03/01 04:20:00;;;;;;;19.75;7.78;;;;;;;11.45;66.90;101519.91;5053256;28;20402;-85
2022/03/01 04:22:26;;;;;;;15.98;5.63;;;;;;;11.50;66.88;101528.38;5052969;28;20286;-86
2022/03/01 04:24:52;;;;;;;18.48;6.35;;;;;;;11.49;66.75;101531.94;5053351;28;20025;-86
2022/03/01 04:27:17;;;;;;;17.85;5.53;;;;;;;11.43;66.88;101527.00;5037765;28;20471;-86
2022/03/01 04:29:44;;;;;;;28.88;6.28;;;;;;;11.44;67.03;101531.31;5033128;28;20112;-85
2022/03/01 04:32:09;;;;;;;13.35;5.03;;;;;;;11.48;66.81;101522.34;5033078;28;20026;-86
2022/03/01 04:34:35;;;;;;;18.67;5.85;;;;;;;11.42;66.77;101524.47;5032759;28;20091;-86
2022/03/01 04:37:01;;;;;;;20.75;5.57;;;;;;;11.38;66.92;101525.56;5032905;28;20076;-85
2022/03/01 04:39:26;;;;;;;19.33;5.68;;;;;;;11.35;66.93;101523.91;5032855;28;20084;-85
2022/03/01 04:41:51;;;;;;;19.88;5.32;;;;;;;11.19;66.72;101523.88;5033169;28;20022;-86
2022/03/01 04:44:17;;;;;;;19.98;5.75;;;;;;;11.22;66.77;101530.78;5033140;28;20067;-85
2022/03/01 04:46:42;;;;;;;18.30;6.00;;;;;;;11.06;67.14;101531.59;5032436;28;20018;-86
2022/03/01 04:49:08;;;;;;;20.83;6.03;;;;;;;11.14;66.93;101525.06;5032942;28;20036;-86
2022/03/01 04:51:34;;;;;;;19.85;4.90;;;;;;;11.13;66.66;101534.72;5037031;28;20090;-85
2022/03/01 04:53:59;;;;;;;22.13;5.97;;;;;;;11.13;66.71;101526.00;5037395;28;20037;-86
2022/03/01 04:56:25;;;;;;;20.52;5.55;;;;;;;11.08;66.14;101536.75;5045365;28;20552;-86
2022/03/01 04:58:51;;;;;;;20.90;5.75;;;;;;;10.90;66.77;101539.41;5056643;28;20040;-85
2022/03/01 05:01:17;;;;;;;18.63;5.35;;;;;;;10.85;66.92;101541.41;5056348;28;20368;-86
2022/03/01 05:03:42;;;;;;;22.40;6.93;;;;;;;10.90;66.68;101528.06;5056240;28;20032;-86
2022/03/01 05:06:07;;;;;;;26.52;6.15;;;;;;;10.86;67.02;101537.00;5054639;28;20029;-85
2022/03/01 05:08:33;;;;;;;20.05;5.80;;;;;;;10.83;67.19;101535.38;5055864;28;20040;-85
2022/03/01 05:11:00;;;;;;;26.90;6.22;;;;;;;10.78;67.02;101539.16;5049622;28;20026;-85
2022/03/01 05:13:27;;;;;;;20.13;6.35;;;;;;;10.80;66.73;101529.44;5036212;28;20022;-86
2022/03/01 05:15:52;;;;;;;20.05;6.43;;;;;;;10.79;67.62;101527.75;5036272;28;20033;-86
2022/03/01 05:18:18;;;;;;;23.45;6.68;;;;;;;10.70;67.10;101522.03;5035670;28;20064;-86
2022/03/01 05:20:43;;;;;;;21.88;6.68;;;;;;;10.60;66.73;101520.78;5035755;28;20041;-86
2022/03/01 05:23:09;;;;;;;21.90;6.95;;;;;;;10.49;67.62;101520.47;5035788;28;20057;-86
2022/03/01 05:25:34;;;;;;;24.23;7.20;;;;;;;10.57;67.49;101517.47;5036381;28;20033;-85
2022/03/01 05:27:59;;;;;;;24.83;7.25;;;;;;;10.44;67.41;101507.56;5055655;28;20021;-86
2022/03/01 05:30:26;;;;;;;16.98;7.15;;;;;;;10.52;67.55;101507.19;5055352;28;20630;-85
2022/03/01 05:32:52;;;;;;;24.25;8.00;;;;;;;10.51;67.86;101513.38;5066237;28;20017;-85
2022/03/01 05:35:26;;;;;;;21.98;7.65;;;;;;;10.56;67.60;101519.22;5078269;28;20400;-85
2022/03/01 05:37:54;;;;;;;22.05;8.38;;;;;;;10.51;67.90;101514.22;5074543;28;20024;-85
2022/03/01 05:40:21;;;;;;;20.52;7.70;;;;;;;10.51;68.23;101513.38;5077252;28;20009;-85
2022/03/01 05:42:47;;;;;;;25.00;8.55;;;;;;;10.57;68.00;101507.81;5060359;28;20052;-86
2022/03/01 05:45:13;;;;;;;29.88;9.25;;;;;;;10.60;68.96;101515.53;5052971;28;20021;-86
2022/03/01 05:47:40;;;;;;;20.05;6.97;;;;;;;10.80;68.07;101532.94;5056728;28;20045;-86
2022/03/01 05:50:06;;;;;;;18.85;8.05;;;;;;;10.86;68.03;101523.84;5046276;28;20057;-86
2022/03/01 05:52:31;;;;;;;20.80;7.88;;;;;;;10.81;68.39;101537.25;5056954;28;20025;-86
2022/03/01 05:54:57;;;;;;;26.00;9.38;;;;;;;10.79;68.28;101539.09;5055221;28;20029;-86
2022/03/01 05:57:27;;;;;;;23.30;7.95;;;;;;;10.97;67.99;101539.94;5056401;28;20029;-86
2022/03/01 05:59:53;;;;;;;26.20;6.93;;;;;;;11.07;67.67;101546.41;5055877;28;20040;-86
2022/03/01 06:02:18;;;;;;;18.33;6.68;;;;;;;11.03;67.67;101544.88;5054021;28;20021;-86
2022/03/01 06:04:44;;;;;;;19.20;7.43;;;;;;;11.16;67.36;101550.34;5050125;28;20074;-86
2022/03/01 06:07:10;;;;;;;19.48;6.65;;;;;;;11.17;67.74;101556.44;5034119;28;20094;-86
2022/03/01 06:09:35;;;;;;;19.80;7.68;;;;;;;11.17;67.43;101556.44;5035234;28;20038;-86
2022/03/01 06:12:00;;;;;;;16.02;6.80;;;;;;;11.31;67.28;101559.19;5034899;28;20033;-86
2022/03/01 06:14:26;;;;;;;17.15;6.20;;;;;;;11.34;67.32;101561.69;5034868;28;20032;-86
2022/03/01 06:16:51;;;;;;;12.13;6.15;;;;;;;11.27;67.47;101560.28;5035018;28;20025;-86
2022/03/01 06:19:16;;;;;;;15.30;6.32;;;;;;;11.37;67.07;101568.56;5034648;28;20085;-86
2022/03/01 06:21:42;;;;;;;18.20;6.95;;;;;;;11.43;67.37;101576.97;5035571;28;20087;-86
2022/03/01 06:24:07;;;;;;;16.45;7.28;;;;;;;11.45;67.30;101577.75;5034909;28;20479;-86
2022/03/01 06:26:33;;;;;;;13.90;6.28;;;;;;;11.46;67.39;101574.19;5035178;28;20028;-86
2022/03/01 06:28:59;;;;;;;17.92;6.95;;;;;;;11.52;66.90;101573.84;5034500;28;20481;-86
2022/03/01 06:31:24;;;;;;;16.85;7.25;;;;;;;11.59;66.93;101589.28;5034508;28;20025;-86
2022/03/01 06:33:50;;;;;;;19.85;6.82;;;;;;;11.57;67.03;101591.16;5034489;28;20041;-86
2022/03/01 06:36:15;;;;;;;15.68;7.40;;;;;;;11.65;66.86;101594.22;5035509;28;20025;-86
2022/03/01 06:38:41;;;;;;;20.25;7.57;;;;;;;11.66;66.54;101585.41;5034298;28;20030;-86
2022/03/01 06:41:06;;;;;;;16.60;7.00;;;;;;;11.65;66.25;101594.22;5034374;28;20029;-86
2022/03/01 06:43:32;;;;;;;17.73;7.07;;;;;;;11.68;66.90;101594.06;5034036;28;20032;-87
2022/03/01 06:45:57;;;;;;;17.75;7.60;;;;;;;11.58;66.56;101598.97;5034301;28;20078;-85
2022/03/01 06:48:22;;;;;;;20.33;6.65;;;;;;;11.65;66.67;101595.09;5033969;28;20018;-85
2022/03/01 06:50:48;;;;;;;14.90;7.10;;;;;;;11.52;66.80;101592.25;5048560;28;20490;-86
2022/03/01 06:53:14;;;;;;;16.15;7.53;;;;;;;11.60;66.94;101591.84;5054544;28;20087;-85
2022/03/01 06:55:43;;;;;;;16.65;7.80;;;;;;;11.54;66.83;101591.34;5052746;28;20061;-86
2022/03/01 06:58:09;;;;;;;17.98;7.28;;;;;;;11.60;65.75;101586.59;5052760;28;20036;-86
2022/03/01 07:00:35;;;;;;;22.58;7.28;;;;;;;11.65;66.44;101594.22;5053615;28;20154;-87
2022/03/01 07:03:00;;;;;;;15.70;6.60;;;;;;;11.71;65.93;101586.88;5053593;28;20494;-86
2022/03/01 07:05:26;;;;;;;13.27;7.28;;;;;;;11.77;66.37;101596.22;5051857;28;20029;-87
2022/03/01 07:07:51;;;;;;;17.15;6.53;;;;;;;11.58;66.26;101603.41;5053553;28;20033;-86
2022/03/01 07:10:16;;;;;;;16.00;6.20;;;;;;;11.76;65.95;101607.66;5053375;28;20021;-86
2022/03/01 07:12:44;;;;;;;17.40;5.97;;;;;;;11.75;65.98;101605.97;5042691;28;20115;-87
2022/03/01 07:15:10;;;;;;;14.40;6.00;;;;;;;11.82;65.69;101620.50;5042424;28;20118;-86
2022/03/01 07:17:35;;;;;;;18.90;7.18;;;;;;;11.87;65.79;101615.84;5054263;28;20021;-86
2022/03/01 07:20:01;;;;;;;12.30;5.50;;;;;;;11.94;65.74;101626.06;5051354;28;20035;-87
2022/03/01 07:22:26;;;;;;;13.93;6.20;;;;;;;11.82;65.06;101633.66;5051906;28;20017;-85
2022/03/01 07:24:52;;;;;;;12.98;6.28;;;;;;;11.88;65.58;101632.47;5052526;28;20064;-85
2022/03/01 07:27:17;;;;;;;11.95;5.88;;;;;;;11.92;65.27;101623.50;5055796;28;20016;-86
2022/03/01 07:29:43;;;;;;;16.30;6.10;;;;;;;11.85;65.34;101633.50;5053781;28;20083;-87
2022/03/01 07:32:09;;;;;;;13.77;8.15;;;;;;;11.96;64.96;101637.34;5052365;28;20025;-87
2022/03/01 07:34:35;;;;;;;17.95;6.13;;;;;;;11.93;64.96;101638.38;5053994;28;20028;-87
2022/03/01 07:37:02;;;;;;;11.57;5.43;;;;;;;12.00;65.07;101629.19;5050221;28;20029;-88
2022/03/01 07:39:27;;;;;;;17.83;7.22;;;;;;;12.04;64.55;101633.34;5053026;28;20047;-88
2022/03/01 07:41:53;;;;;;;14.98;7.60;;;;;;;11.99;64.78;101632.78;5052633;28;20392;-88
2022/03/01 07:44:19;;;;;;;14.70;6.25;;;;;;;11.99;64.39;101629.31;5061477;28;20115;-87
2022/03/01 07:46:45;;;;;;;12.73;6.80;;;;;;;11.90;64.47;101628.84;5058282;28;20387;-87
2022/03/01 07:49:11;;;;;;;18.35;6.35;;;;;;;12.03;64.52;101633.47;5051577;28;20029;-88
2022/03/01 07:51:36;;;;;;;15.68;6.45;;;;;;;11.99;64.23;101624.03;5052207;28;20072;-87
2022/03/01 07:54:02;;;;;;;13.05;6.85;;;;;;;12.18;64.44;101622.06;5059359;28;20061;-88
2022/03/01 07:56:28;;;;;;;14.27;7.57;;;;;;;12.01;64.18;101616.91;5053292;28;20028;-89
2022/03/01 07:58:53;;;;;;;13.43;6.72;;;;;;;12.00;63.95;101628.34;5050730;28;20035;-87
2022/03/01 08:01:20;;;;;;;12.68;7.03;;;;;;;12.01;64.25;101635.34;5052536;28;20032;-87
2022/03/01 08:03:46;;;;;;;13.38;7.22;;;;;;;12.10;64.05;101622.53;5052348;28;20029;-86
2022/03/01 08:06:11;;;;;;;18.55;8.40;;;;;;;12.13;63.96;101626.75;5067973;28;20025;-86
2022/03/01 08:08:37;;;;;;;15.20;7.05;;;;;;;12.19;64.05;101626.41;5053634;28;20025;-86
2022/03/01 08:11:04;;;;;;;17.42;8.52;;;;;;;12.12;63.89;101629.47;5052075;28;20054;-89
2022/03/01 08:13:30;;;;;;;15.00;7.80;;;;;;;12.14;63.48;101633.72;5051773;28;20032;-87
2022/03/01 08:15:56;;;;;;;14.73;8.10;;;;;;;12.12;63.88;101640.84;5051796;28;20036;-87
2022/03/01 08:18:21;;;;;;;15.95;9.07;;;;;;;12.10;63.63;101627.78;5064464;28;20036;-88
2022/03/01 08:20:47;;;;;;;15.68;9.27;;;;;;;12.20;63.61;101633.38;5071966;28;20055;-87
2022/03/01 08:23:12;;;;;;;13.90;8.43;;;;;;;12.10;63.02;101642.72;5065485;28;20021;-88
2022/03/01 08:25:37;;;;;;;18.38;7.95;;;;;;;12.23;63.44;101638.47;5051848;28;20600;-87
2022/03/01 08:28:03;;;;;;;19.65;8.48;;;;;;;11.91;63.90;101640.25;5049876;28;20040;-88
2022/03/01 08:30:29;;;;;;;14.60;7.45;;;;;;;12.10;63.45;101626.91;5048303;28;20033;-88
2022/03/01 08:32:55;;;;;;;14.10;6.95;;;;;;;12.01;63.90;101640.59;5037965;28;20022;-87
2022/03/01 08:35:21;;;;;;;19.48;7.55;;;;;;;12.16;63.70;101623.94;5045733;28;20025;-88
2022/03/01 08:37:47;;;;;;;17.63;8.18;;;;;;;12.22;62.96;101626.25;5050145;28;20025;-88
2022/03/01 08:40:14;;;;;;;14.98;7.35;;;;;;;12.21;63.40;101635.09;5043421;28;20025;-88
2022/03/01 08:42:40;;;;;;;15.57;7.35;;;;;;;12.42;63.09;101629.53;5051596;28;20048;-88
2022/03/01 08:45:07;;;;;;;18.50;9.32;;;;;;;12.21;63.38;101632.44;5051550;28;20013;-88
2022/03/01 08:47:33;;;;;;;18.17;8.20;;;;;;;12.05;64.21;101619.28;5051184;28;20463;-87
2022/03/01 08:49:59;;;;;;;18.40;7.65;;;;;;;12.12;63.25;101634.75;5046665;28;20104;-88
2022/03/01 08:52:25;;;;;;;16.67;8.07;;;;;;;12.30;63.46;101629.31;5051004;28;20024;-87
2022/03/01 08:54:50;;;;;;;16.83;7.80;;;;;;;12.33;63.24;101627.44;5043519;28;20399;-88
2022/03/01 08:57:16;;;;;;;12.82;6.65;;;;;;;12.60;63.03;101623.25;5048881;28;20083;-87
2022/03/01 08:59:42;;;;;;;20.50;8.15;;;;;;;12.39;62.82;101621.84;5045652;28;20083;-88
2022/03/01 09:02:07;;;;;;;14.15;7.90;;;;;;;12.53;62.91;101634.22;5055337;28;20025;-88
2022/03/01 09:04:33;;;;;;;16.75;7.55;;;;;;;12.75;62.35;101633.84;5052012;28;20033;-87
2022/03/01 09:06:58;;;;;;;13.45;7.03;;;;;;;12.85;62.68;101640.28;5050990;28;20104;-87
2022/03/01 09:09:24;;;;;;;14.85;6.75;;;;;;;12.68;62.42;101621.03;5051096;28;20056;-88
2022/03/01 09:11:49;;;;;;;16.15;7.20;;;;;;;12.51;62.63;101634.31;5043469;28;20029;-88
2022/03/01 09:14:14;;;;;;;16.05;6.35;;;;;;;12.47;62.96;101633.63;5039767;28;20044;-88
2022/03/01 09:16:40;;;;;;;14.07;6.80;;;;;;;12.62;62.11;101629.28;5051378;28;20082;-88
2022/03/01 09:19:06;;;;;;;13.32;6.80;;;;;;;12.93;62.14;101622.22;5051721;28;20503;-88
2022/03/01 09:21:33;;;;;;;16.48;7.10;;;;;;;12.79;62.01;101633.56;5077305;28;20036;-88
2022/03/01 09:23:58;;;;;;;14.02;6.13;;;;;;;12.82;62.55;101629.94;5060251;28;20005;-88
2022/03/01 09:26:24;;;;;;;11.07;6.10;;;;;;;12.78;61.51;101623.97;5058990;28;20029;-88
2022/03/01 09:28:49;;;;;;;15.18;6.25;;;;;;;13.08;62.21;101631.03;5055155;28;20104;-87
2022/03/01 09:31:14;;;;;;;20.85;6.45;;;;;;;13.25;61.69;101633.53;5060461;28;20052;-87
2022/03/01 09:33:43;;;;;;;17.83;6.00;;;;;;;13.40;61.06;101628.28;5057562;28;20081;-88
2022/03/01 09:36:17;;;;;;;17.63;6.13;;;;;;;13.28;61.02;101616.66;5053116;28;20021;-86
2022/03/01 09:38:43;;;;;;;11.55;5.35;;;;;;;13.55;60.77;101622.09;5055604;28;20040;-87
2022/03/01 09:41:10;;;;;;;14.23;5.13;;;;;;;13.39;59.84;101613.38;5053192;28;20025;-87
2022/03/01 09:43:37;;;;;;;12.93;4.88;;;;;;;12.92;61.42;101623.19;5048344;28;20085;-87
2022/03/01 09:46:03;;;;;;;8.25;4.47;;;;;;;13.24;60.89;101625.69;5041535;28;20364;-87
2022/03/01 09:48:28;;;;;;;13.35;4.85;;;;;;;13.35;60.31;101617.16;5053152;28;20028;-87
2022/03/01 09:50:54;;;;;;;11.98;4.85;;;;;;;13.51;60.61;101612.66;5053882;28;20385;-88
2022/03/01 09:53:20;;;;;;;9.60;5.03;;;;;;;13.70;59.89;101617.66;5054726;28;20074;-87
2022/03/01 09:55:46;;;;;;;13.57;4.82;;;;;;;13.56;60.01;101617.66;5053834;28;20033;-87
2022/03/01 09:58:13;;;;;;;11.40;4.47;;;;;;;13.68;60.49;101627.44;5054426;28;20026;-87
2022/03/01 10:00:38;;;;;;;11.95;4.75;;;;;;;13.25;60.51;101622.09;5053423;28;20045;-87
2022/03/01 10:03:03;;;;;;;10.40;4.65;;;;;;;13.48;60.50;101618.13;5058844;28;20074;-86
2022/03/01 10:05:34;;;;;;;13.40;4.72;;;;;;;13.72;60.35;101621.03;5069029;28;20111;-87
2022/03/01 10:08:20;;;;;;;15.77;5.68;;;;;;;13.43;60.45;101623.69;5068232;28;20029;-87
2022/03/01 10:10:49;;;;;;;11.50;4.85;;;;;;;13.47;60.71;101627.84;5058555;28;20033;-87
2022/03/01 10:13:20;;;;;;;16.02;6.53;;;;;;;13.52;60.13;101619.63;5062754;28;20029;-88
2022/03/01 10:15:47;;;;;;;21.45;8.68;;;;;;;13.50;59.60;101613.59;5053993;28;20026;-87
2022/03/01 10:18:15;;;;;;;14.10;7.60;;;;;;;13.55;59.68;101618.63;5043970;28;20029;-87
2022/03/01 10:20:44;;;;;;;15.02;6.28;;;;;;;13.48;60.22;101616.31;5054074;28;20039;-86
2022/03/01 10:23:10;;;;;;;13.52;5.10;;;;;;;13.23;60.19;101624.84;5054960;28;20029;-86
2022/03/01 10:25:36;;;;;;;12.30;4.32;;;;;;;13.10;60.36;101624.72;5052199;28;20123;-86
2022/03/01 10:28:02;;;;;;;14.70;4.55;;;;;;;13.14;60.82;101617.47;5054023;28;20060;-87
2022/03/01 10:30:27;;;;;;;9.95;4.35;;;;;;;13.39;60.29;101614.25;5053753;28;20025;-86
2022/03/01 10:33:22;;;;;;;8.68;4.25;;;;;;;13.28;60.88;101608.75;5054228;28;20025;-86
2022/03/01 10:35:58;;;;;;;9.30;3.97;;;;;;;13.36;59.61;101614.44;5035709;28;20144;-87
2022/03/01 10:38:24;;;;;;;12.25;3.97;;;;;;;13.21;60.49;101613.56;5034545;28;20022;-87
2022/03/01 10:40:57;;;;;;;11.27;4.22;;;;;;;13.47;60.08;101605.88;5047649;28;20491;-86
2022/03/01 10:43:25;;;;;;;9.63;4.10;;;;;;;13.55;59.65;101608.91;5056135;28;20025;-87
2022/03/01 10:45:51;;;;;;;9.20;3.95;;;;;;;13.60;59.36;101606.81;5051973;28;20124;-87
2022/03/01 10:48:42;;;;;;;10.77;3.65;;;;;;;13.52;59.98;101613.50;5053237;28;20100;-87
2022/03/01 10:51:10;;;;;;;9.18;4.03;;;;;;;13.67;59.57;101607.28;5052545;28;20067;-87
2022/03/01 10:53:41;;;;;;;9.30;4.03;;;;;;;13.35;59.48;101606.59;5053694;28;20551;-86
2022/03/01 10:56:11;;;;;;;7.03;3.23;;;;;;;13.35;59.69;101623.31;5053463;28;20108;-87
2022/03/01 10:58:38;;;;;;;8.85;3.70;;;;;;;13.34;59.80;101618.97;5053976;28;20313;-85
2022/03/01 11:01:04;;;;;;;10.52;3.78;;;;;;;13.34;60.36;101623.38;5051577;28;20033;-87
2022/03/01 11:03:30;;;;;;;11.45;3.25;;;;;;;13.23;60.38;101624.84;5053167;28;20478;-87
2022/03/01 11:05:57;;;;;;;9.38;4.00;;;;;;;13.36;60.07;101617.06;5052958;28;20059;-86
2022/03/01 11:08:28;;;;;;;8.70;3.55;;;;;;;13.26;60.22;101621.19;5053216;28;20075;-87
2022/03/01 11:10:54;;;;;;;9.82;4.07;;;;;;;13.42;59.84;101624.63;5037070;28;20036;-87
2022/03/01 11:13:25;;;;;;;10.57;3.42;;;;;;;13.21;60.80;101623.22;5045923;28;20098;-87